Time;durP1;ratioP1;P1;durP2;ratioP2;P2;SDS_P1;SDS_P2;PMS_P1;PMS_P2;Temp;Humidity;BMP_temperature;BMP_pressure;BME280_temperature;BME280_humidity;BME280_pressure;Samples;Min_cycle;Max_cycle;Signal;HPM_P1;HPM_P2
2023/08/31 00:02:15;;;;;;;6.28;3.35;;;;;;;11.60;100.00;100914.88;5163092;28;20394;-73
2023/08/31 00:04:45;;;;;;;6.25;3.47;;;;;;;11.61;100.00;100919.22;5146241;28;20029;-74
2023/08/31 00:07:16;;;;;;;8.70;3.60;;;;;;;11.59;100.00;100921.25;5162700;28;20030;-74
2023/08/31 00:09:46;;;;;;;9.73;4.10;;;;;;;11.63;100.00;100919.88;5163250;28;20053;-74
2023/08/31 00:12:17;;;;;;;7.97;3.55;;;;;;;11.62;100.00;100918.22;5163181;28;20084;-74
2023/08/31 00:14:47;;;;;;;8.93;3.90;;;;;;;11.60;100.00;100916.72;5163072;28;20030;-74
2023/08/31 00:17:18;;;;;;;6.88;3.95;;;;;;;11.61;100.00;100918.41;5162382;28;20018;-75
2023/08/31 00:19:48;;;;;;;8.48;4.32;;;;;;;11.59;100.00;100912.34;5163315;28;20419;-75
2023/08/31 00:22:19;;;;;;;8.15;4.10;;;;;;;11.57;100.00;100912.53;5162056;28;20026;-74
2023/08/31 00:24:51;;;;;;;11.80;4.28;;;;;;;11.58;100.00;100908.81;5163129;28;20026;-73
2023/08/31 00:27:21;;;;;;;9.95;4.15;;;;;;;11.58;100.00;100907.97;5161986;28;20035;-74
2023/08/31 00:29:52;;;;;;;9.20;4.28;;;;;;;11.61;100.00;100910.34;5162993;28;20064;-74
2023/08/31 00:32:23;;;;;;;9.43;3.90;;;;;;;11.63;100.00;100911.81;5163119;28;20502;-74
2023/08/31 00:34:53;;;;;;;9.10;4.10;;;;;;;11.62;100.00;100909.31;5162821;28;20061;-74
2023/08/31 00:37:24;;;;;;;10.23;4.50;;;;;;;11.56;100.00;100907.31;5161109;28;20023;-73
2023/08/31 00:39:54;;;;;;;8.20;4.28;;;;;;;11.54;100.00;100907.47;5162432;28;20022;-74
2023/08/31 00:42:25;;;;;;;5.82;3.80;;;;;;;11.54;100.00;100906.63;5162658;28;20035;-74
2023/08/31 00:44:56;;;;;;;11.13;4.43;;;;;;;11.51;100.00;100907.00;5162700;28;20030;-74
2023/08/31 00:47:27;;;;;;;8.35;4.07;;;;;;;11.49;100.00;100914.38;5161896;28;20031;-74
2023/08/31 00:49:57;;;;;;;8.05;4.10;;;;;;;11.50;100.00;100905.34;5162305;28;20034;-75
2023/08/31 00:52:28;;;;;;;8.60;3.75;;;;;;;11.49;100.00;100915.22;5162348;28;20061;-73
2023/08/31 00:55:01;;;;;;;9.80;4.18;;;;;;;11.53;100.00;100902.28;5162555;28;20029;-75
2023/08/31 00:57:31;;;;;;;11.45;5.07;;;;;;;11.50;100.00;100900.78;5158666;28;20042;-74
2023/08/31 01:00:06;;;;;;;13.10;4.80;;;;;;;11.51;100.00;100902.47;5152418;28;20022;-74
2023/08/31 01:02:48;;;;;;;13.02;4.50;;;;;;;11.48;100.00;100902.78;5162176;28;20030;-75
2023/08/31 01:05:26;;;;;;;12.02;5.65;;;;;;;11.48;100.00;100902.78;5162489;28;20030;-74
2023/08/31 01:08:19;;;;;;;7.47;4.28;;;;;;;11.47;100.00;100898.44;5160649;28;20023;-74
2023/08/31 01:11:19;;;;;;;14.05;6.07;;;;;;;11.44;100.00;100896.06;5149077;28;20426;-74
2023/08/31 01:14:11;;;;;;;;;;;;;;;11.42;100.00;100906.16;5147964;28;20030;-74
2023/08/31 01:16:45;;;;;;;11.10;5.95;;;;;;;11.41;100.00;100905.34;5161775;28;19910;-74
2023/08/31 01:19:43;;;;;;;10.60;5.60;;;;;;;11.40;100.00;100905.50;5161957;28;20026;-74
2023/08/31 01:22:40;;;;;;;13.45;6.10;;;;;;;11.40;100.00;100906.34;5162266;28;20058;-74
2023/08/31 01:25:28;;;;;;;15.57;5.88;;;;;;;11.36;100.00;100907.69;5161910;28;20029;-74
2023/08/31 01:28:18;;;;;;;11.23;5.50;;;;;;;11.33;100.00;100912.56;5161092;28;20174;-74
2023/08/31 01:30:49;;;;;;;11.57;6.18;;;;;;;11.33;100.00;100910.69;5161100;28;20059;-74
2023/08/31 01:33:20;;;;;;;14.30;5.72;;;;;;;11.34;100.00;100912.38;5161999;28;20380;-74
2023/08/31 01:35:55;;;;;;;12.32;6.03;;;;;;;11.33;100.00;100918.75;5162001;28;20088;-74
2023/08/31 01:38:28;;;;;;;16.30;6.50;;;;;;;11.30;100.00;100913.75;5161962;28;20058;-73
2023/08/31 01:41:05;;;;;;;17.05;6.43;;;;;;;11.31;100.00;100917.28;5162494;28;20026;-74
2023/08/31 01:43:36;;;;;;;14.48;6.85;;;;;;;11.32;100.00;100911.72;5162295;28;20030;-74
2023/08/31 01:46:07;;;;;;;13.93;6.32;;;;;;;11.30;100.00;100908.38;5160570;28;20033;-74
2023/08/31 01:48:40;;;;;;;12.45;5.85;;;;;;;11.29;100.00;100909.34;5161734;28;20026;-73
2023/08/31 01:51:10;;;;;;;11.55;6.38;;;;;;;11.26;100.00;100916.94;5160683;28;20030;-74
2023/08/31 01:53:41;;;;;;;15.93;6.80;;;;;;;11.25;100.00;100912.59;5162134;28;20029;-74
2023/08/31 01:56:13;;;;;;;15.23;7.63;;;;;;;11.25;100.00;100921.47;5161599;28;20018;-74
2023/08/31 01:58:44;;;;;;;17.65;8.27;;;;;;;11.26;100.00;100919.63;5161473;28;20022;-74
2023/08/31 02:01:14;;;;;;;21.10;8.50;;;;;;;11.25;100.00;100923.31;5161608;28;20069;-74
2023/08/31 02:03:45;;;;;;;18.17;9.00;;;;;;;11.28;100.00;100922.97;5160553;28;20034;-74
2023/08/31 02:06:16;;;;;;;21.23;8.32;;;;;;;11.28;100.00;100921.13;5171493;28;20033;-74
2023/08/31 02:08:47;;;;;;;23.52;9.10;;;;;;;11.25;100.00;100926.84;5162116;28;20030;-74
2023/08/31 02:11:17;;;;;;;14.68;8.27;;;;;;;11.23;100.00;100934.22;5153445;28;20500;-74
2023/08/31 02:13:48;;;;;;;18.17;8.93;;;;;;;11.23;100.00;100925.31;5165743;28;20026;-74
2023/08/31 02:16:19;;;;;;;28.48;9.80;;;;;;;11.24;100.00;100933.19;5165275;28;20109;-74
2023/08/31 02:18:49;;;;;;;18.52;9.07;;;;;;;11.23;100.00;100942.25;5165256;28;20022;-74
2023/08/31 02:21:20;;;;;;;22.65;9.65;;;;;;;11.21;100.00;100940.78;5164243;28;20031;-74
2023/08/31 02:23:50;;;;;;;19.50;9.68;;;;;;;11.21;100.00;100940.78;5165218;28;20022;-73
2023/08/31 02:26:22;;;;;;;20.90;9.40;;;;;;;11.19;100.00;100940.09;5164789;28;20033;-74
2023/08/31 02:28:52;;;;;;;22.02;9.20;;;;;;;11.20;100.00;100939.09;5165080;28;20398;-74
2023/08/31 02:31:23;;;;;;;20.50;9.77;;;;;;;11.16;100.00;100941.28;5165372;28;20026;-74
2023/08/31 02:33:54;;;;;;;25.27;10.52;;;;;;;11.17;100.00;100939.44;5165374;28;20030;-74
2023/08/31 02:36:24;;;;;;;18.85;9.43;;;;;;;11.18;100.00;100941.09;5164575;28;20479;-74
2023/08/31 02:38:56;;;;;;;20.65;8.93;;;;;;;11.18;100.00;100938.41;5147906;28;20036;-74
2023/08/31 02:41:27;;;;;;;23.70;10.05;;;;;;;11.17;100.00;100942.94;5165076;28;20030;-74
2023/08/31 02:43:57;;;;;;;19.92;9.20;;;;;;;11.15;100.00;100943.13;5165304;28;20036;-74
2023/08/31 02:46:28;;;;;;;23.52;9.57;;;;;;;11.12;100.00;100938.06;5164621;28;20035;-74
2023/08/31 02:48:58;;;;;;;24.75;10.18;;;;;;;11.12;100.00;100935.41;5163614;28;20030;-74
2023/08/31 02:51:29;;;;;;;21.05;10.25;;;;;;;11.12;100.00;100931.88;5164048;28;20022;-74
2023/08/31 02:54:00;;;;;;;21.83;9.00;;;;;;;11.13;100.00;100941.59;5165352;28;20088;-74
2023/08/31 02:56:30;;;;;;;24.27;10.23;;;;;;;11.17;100.00;100936.75;5164872;28;20021;-74
2023/08/31 02:59:01;;;;;;;22.63;9.35;;;;;;;11.19;100.00;100942.78;5151706;28;20053;-74
2023/08/31 03:01:31;;;;;;;22.40;9.90;;;;;;;11.22;100.00;100951.34;5165123;28;20053;-74
2023/08/31 03:04:02;;;;;;;21.70;9.85;;;;;;;11.24;100.00;100943.09;5164705;28;20022;-74
2023/08/31 03:06:33;;;;;;;23.10;9.20;;;;;;;11.25;100.00;100942.97;5164515;28;20041;-76
2023/08/31 03:09:04;;;;;;;20.58;10.02;;;;;;;11.26;100.00;100935.75;5164546;28;20525;-74
2023/08/31 03:11:34;;;;;;;28.38;11.18;;;;;;;11.27;100.00;100934.72;5164869;28;20548;-74
2023/08/31 03:14:04;;;;;;;18.23;9.65;;;;;;;11.27;100.00;100940.09;5164513;28;20022;-74
2023/08/31 03:16:35;;;;;;;25.63;10.77;;;;;;;11.28;100.00;100939.91;5164201;28;20072;-74
2023/08/31 03:19:06;;;;;;;22.80;10.60;;;;;;;11.24;100.00;100938.56;5164001;28;20117;-74
2023/08/31 03:21:36;;;;;;;21.33;10.45;;;;;;;11.24;100.00;100935.03;5164636;28;20032;-74
2023/08/31 03:24:07;;;;;;;24.48;10.73;;;;;;;11.20;100.00;100933.72;5164681;28;20026;-74
2023/08/31 03:26:37;;;;;;;21.58;10.27;;;;;;;11.22;100.00;100935.22;5163828;28;20038;-75
2023/08/31 03:29:08;;;;;;;28.00;11.63;;;;;;;11.20;100.00;100936.41;5163187;28;20113;-74
2023/08/31 03:31:38;;;;;;;24.42;10.20;;;;;;;11.19;100.00;100937.41;5164575;28;20394;-74
2023/08/31 03:34:08;;;;;;;21.80;11.00;;;;;;;11.19;100.00;100942.78;5164409;28;20034;-75
2023/08/31 03:36:39;;;;;;;32.22;11.60;;;;;;;11.20;100.00;100948.00;5163976;28;20505;-74
2023/08/31 03:39:09;;;;;;;31.92;11.98;;;;;;;11.21;100.00;100946.16;5163007;28;20445;-74
2023/08/31 03:41:40;;;;;;;25.88;11.90;;;;;;;11.21;100.00;100943.47;5164135;28;20034;-74
2023/08/31 03:44:11;;;;;;;21.45;11.52;;;;;;;11.21;100.00;100948.81;5164422;28;20056;-74
2023/08/31 03:46:42;;;;;;;23.17;11.73;;;;;;;11.19;100.00;100940.91;5163896;28;20030;-74
2023/08/31 03:49:12;;;;;;;28.85;11.15;;;;;;;11.17;100.00;100939.44;5163531;28;20556;-74
2023/08/31 03:51:43;;;;;;;27.10;11.90;;;;;;;11.18;100.00;100944.63;5163029;28;20065;-74
2023/08/31 03:54:14;;;;;;;25.48;12.82;;;;;;;11.20;100.00;100953.38;5163897;28;20034;-74
2023/08/31 03:56:44;;;;;;;28.92;12.85;;;;;;;11.22;100.00;100947.81;5163540;28;20037;-74
2023/08/31 03:59:14;;;;;;;30.02;12.32;;;;;;;11.26;100.00;100958.06;5150665;28;20026;-74
2023/08/31 04:01:45;;;;;;;31.33;13.48;;;;;;;11.23;100.00;100947.63;5164039;28;20364;-74
2023/08/31 04:04:15;;;;;;;29.30;12.57;;;;;;;11.23;100.00;100952.19;5162317;28;20023;-74
2023/08/31 04:06:46;;;;;;;28.83;12.35;;;;;;;11.22;100.00;100950.50;5162029;28;20026;-74
2023/08/31 04:09:17;;;;;;;23.95;10.88;;;;;;;11.19;100.00;100958.88;5158189;28;20022;-74
2023/08/31 04:11:47;;;;;;;24.08;11.15;;;;;;;11.19;100.00;100956.19;5152373;28;20506;-73
2023/08/31 04:14:19;;;;;;;26.90;12.35;;;;;;;11.12;100.00;100959.56;5145304;28;20483;-74
2023/08/31 04:16:50;;;;;;;25.58;10.45;;;;;;;11.09;100.00;100959.03;5144677;28;20428;-74
2023/08/31 04:19:20;;;;;;;72.40;11.93;;;;;;;11.06;100.00;100960.22;5163521;28;20487;-74
2023/08/31 04:21:51;;;;;;;20.70;8.98;;;;;;;11.03;100.00;100957.88;5162172;28;20037;-74
2023/08/31 04:24:21;;;;;;;23.48;9.48;;;;;;;11.02;100.00;100964.25;5163305;28;20582;-74
2023/08/31 04:26:52;;;;;;;21.63;8.20;;;;;;;11.00;100.00;100968.97;5161097;28;20029;-74
2023/08/31 04:29:22;;;;;;;24.45;10.70;;;;;;;10.99;100.00;100967.25;5163181;28;20029;-74
2023/08/31 04:31:53;;;;;;;27.85;11.05;;;;;;;11.05;100.00;100971.97;5146560;28;20153;-74
2023/08/31 04:34:24;;;;;;;28.35;11.30;;;;;;;11.09;100.00;100967.97;5154168;28;20023;-74
2023/08/31 04:36:54;;;;;;;28.48;11.57;;;;;;;11.18;100.00;100976.00;5144151;28;20049;-75
2023/08/31 04:39:26;;;;;;;25.90;10.18;;;;;;;11.25;100.00;100977.03;5155933;28;20033;-74
2023/08/31 04:41:57;;;;;;;24.98;11.75;;;;;;;11.29;100.00;100981.03;5162898;28;20034;-76
2023/08/31 04:44:27;;;;;;;22.63;11.45;;;;;;;11.31;100.00;100979.88;5161189;28;20073;-75
2023/08/31 04:46:58;;;;;;;28.58;10.60;;;;;;;11.35;100.00;100981.22;5143403;28;20026;-73
2023/08/31 04:49:28;;;;;;;22.05;9.60;;;;;;;11.35;100.00;100978.53;5142537;28;20031;-74
2023/08/31 04:51:59;;;;;;;21.95;9.55;;;;;;;11.35;100.00;100989.28;5151513;28;20057;-74
2023/08/31 04:54:29;;;;;;;19.73;9.65;;;;;;;11.36;100.00;100985.59;5162857;28;20027;-74
2023/08/31 04:57:00;;;;;;;32.13;9.55;;;;;;;11.36;100.00;100984.75;5152806;28;20022;-73
2023/08/31 04:59:30;;;;;;;24.83;10.70;;;;;;;11.43;100.00;100979.53;5160433;28;20041;-74
2023/08/31 05:02:01;;;;;;;22.40;10.40;;;;;;;11.44;100.00;100976.66;5162824;28;20112;-73
2023/08/31 05:04:31;;;;;;;20.15;9.10;;;;;;;11.45;100.00;100983.75;5166289;28;20491;-74
2023/08/31 05:07:03;;;;;;;20.17;9.40;;;;;;;11.49;100.00;100984.22;5168557;28;20038;-74
2023/08/31 05:09:34;;;;;;;28.08;9.40;;;;;;;11.48;100.00;100988.75;5162519;28;20068;-74
2023/08/31 05:12:05;;;;;;;21.27;9.45;;;;;;;11.47;100.00;100986.25;5162608;28;20030;-75
2023/08/31 05:14:37;;;;;;;17.35;8.43;;;;;;;11.46;100.00;100996.16;5162603;28;20033;-74
2023/08/31 05:17:07;;;;;;;24.73;9.48;;;;;;;11.46;100.00;100992.63;5162204;28;20030;-74
2023/08/31 05:19:38;;;;;;;24.90;10.18;;;;;;;11.46;100.00;100996.16;5162708;28;20080;-74
2023/08/31 05:22:09;;;;;;;27.20;10.15;;;;;;;11.54;100.00;101004.19;5162854;28;20037;-74
2023/08/31 05:24:39;;;;;;;21.20;10.05;;;;;;;11.55;100.00;101005.06;5162767;28;20026;-74
2023/08/31 05:27:10;;;;;;;23.30;10.10;;;;;;;11.59;100.00;101001.84;5161506;28;20041;-74
2023/08/31 05:29:40;;;;;;;20.67;10.07;;;;;;;11.64;100.00;101014.78;5162699;28;20029;-74
2023/08/31 05:32:11;;;;;;;21.77;10.40;;;;;;;11.64;100.00;101010.25;5162637;28;20037;-74
2023/08/31 05:34:41;;;;;;;20.33;9.18;;;;;;;11.65;100.00;101019.16;5162356;28;20034;-74
2023/08/31 05:37:12;;;;;;;23.85;9.23;;;;;;;11.65;100.00;101016.47;5162008;28;20033;-74
2023/08/31 05:39:48;;;;;;;23.25;9.38;;;;;;;11.66;100.00;101019.00;5162259;28;20041;-74
2023/08/31 05:42:18;;;;;;;18.70;8.60;;;;;;;11.65;100.00;101019.16;5162225;28;20037;-74
2023/08/31 05:44:49;;;;;;;18.70;9.70;;;;;;;11.66;100.00;101018.16;5159682;28;20034;-74
2023/08/31 05:47:19;;;;;;;22.52;9.70;;;;;;;11.72;100.00;101022.00;5160513;28;20022;-74
2023/08/31 05:49:51;;;;;;;24.77;10.27;;;;;;;11.82;100.00;101020.84;5165806;28;20121;-74
2023/08/31 05:52:21;;;;;;;31.58;9.85;;;;;;;12.12;100.00;101019.28;5164805;28;20441;-74
2023/08/31 05:54:52;;;;;;;26.55;10.13;;;;;;;12.61;100.00;101021.81;5165225;28;20118;-74
2023/08/31 05:57:23;;;;;;;19.52;8.30;;;;;;;13.08;100.00;101026.25;5163064;28;20018;-74
2023/08/31 05:59:53;;;;;;;12.98;6.80;;;;;;;13.55;100.00;101021.72;5153833;28;20380;-75
2023/08/31 06:02:24;;;;;;;11.43;5.57;;;;;;;13.93;100.00;101026.09;5164935;28;20038;-74
2023/08/31 06:04:54;;;;;;;8.50;5.25;;;;;;;14.22;100.00;101022.59;5163468;28;20026;-74
2023/08/31 06:07:25;;;;;;;10.55;4.80;;;;;;;14.73;100.00;101030.75;5164383;28;20060;-74
2023/08/31 06:09:56;;;;;;;14.90;4.65;;;;;;;15.01;100.00;101032.75;5164637;28;20026;-75
2023/08/31 06:12:27;;;;;;;10.50;4.40;;;;;;;15.42;100.00;101029.44;5164585;28;20089;-75
2023/08/31 06:14:58;;;;;;;12.52;4.18;;;;;;;15.42;100.00;101032.16;5164384;28;20026;-74
2023/08/31 06:17:29;;;;;;;10.40;3.88;;;;;;;15.45;100.00;101032.56;5163919;28;20084;-74
2023/08/31 06:19:59;;;;;;;10.10;4.10;;;;;;;15.71;100.00;101032.03;5164351;28;20026;-74
2023/08/31 06:22:30;;;;;;;7.43;4.28;;;;;;;15.75;100.00;101033.28;5163222;28;20105;-73
2023/08/31 06:25:01;;;;;;;10.35;3.90;;;;;;;15.96;100.00;101037.81;5164319;28;20022;-75
2023/08/31 06:27:31;;;;;;;12.98;4.43;;;;;;;16.27;100.00;101048.25;5163848;28;20491;-74
2023/08/31 06:30:03;;;;;;;10.38;3.22;;;;;;;16.49;100.00;101046.28;5163190;28;20125;-74
2023/08/31 06:32:34;;;;;;;13.07;3.63;;;;;;;16.49;100.00;101042.75;5164292;28;20093;-74
2023/08/31 06:35:05;;;;;;;8.00;3.53;;;;;;;16.88;100.00;101049.41;5164348;28;20498;-74
2023/08/31 06:37:39;;;;;;;7.07;3.22;;;;;;;17.13;100.00;101042.41;5163886;28;20479;-74
2023/08/31 06:40:10;;;;;;;8.70;2.93;;;;;;;17.26;100.00;101045.13;5163915;28;20498;-75
2023/08/31 06:42:40;;;;;;;6.88;3.20;;;;;;;17.32;100.00;101044.34;5164306;28;20030;-74
2023/08/31 06:45:11;;;;;;;9.57;3.45;;;;;;;17.31;100.00;101045.34;5162852;28;20053;-74
2023/08/31 06:47:42;;;;;;;11.15;3.30;;;;;;;17.54;100.00;101052.28;5163564;28;20030;-74
2023/08/31 06:50:12;;;;;;;9.43;3.60;;;;;;;17.56;100.00;101052.91;5164257;28;20030;-74
2023/08/31 06:52:43;;;;;;;7.50;3.35;;;;;;;17.72;100.00;101063.38;5163137;28;20029;-74
2023/08/31 06:55:14;;;;;;;13.85;3.47;;;;;;;17.91;100.00;101056.28;5163101;28;20022;-74
2023/08/31 06:57:45;;;;;;;7.82;2.97;;;;;;;18.31;100.00;101056.25;5159000;28;20019;-75
2023/08/31 07:00:15;;;;;;;9.57;3.40;;;;;;;18.49;100.00;101050.97;5155393;28;20033;-74
2023/08/31 07:02:46;;;;;;;10.60;3.03;;;;;;;18.71;100.00;101056.16;5163818;28;20084;-75
2023/08/31 07:05:16;;;;;;;8.45;2.97;;;;;;;18.75;100.00;101058.25;5161777;28;20673;-75
2023/08/31 07:07:47;;;;;;;11.60;2.80;;;;;;;18.90;100.00;101055.25;5163125;28;20026;-75
2023/08/31 07:10:18;;;;;;;13.45;3.50;;;;;;;18.81;100.00;101054.66;5162203;28;20022;-74
2023/08/31 07:12:49;;;;;;;8.90;3.45;;;;;;;18.77;100.00;101061.56;5163513;28;20030;-74
2023/08/31 07:15:19;;;;;;;11.35;3.58;;;;;;;18.42;100.00;101060.19;5163365;28;20034;-74
2023/08/31 07:17:50;;;;;;;10.65;3.85;;;;;;;18.66;100.00;101069.53;5162683;28;20026;-75
2023/08/31 07:20:20;;;;;;;10.10;3.20;;;;;;;18.76;100.00;101059.06;5163182;28;20109;-73
2023/08/31 07:22:51;;;;;;;13.57;3.95;;;;;;;18.91;100.00;101059.63;5165459;28;20026;-74
2023/08/31 07:25:21;;;;;;;10.00;3.10;;;;;;;19.23;100.00;101068.69;5171548;28;20050;-74
2023/08/31 07:27:52;;;;;;;10.68;3.25;;;;;;;19.25;100.00;101060.31;5167579;28;20031;-74
2023/08/31 07:30:23;;;;;;;15.10;3.28;;;;;;;19.62;100.00;101064.06;5163600;28;20070;-74
2023/08/31 07:32:53;;;;;;;11.32;3.15;;;;;;;19.63;100.00;101069.31;5175433;28;20026;-75
2023/08/31 07:35:24;;;;;;;12.93;3.55;;;;;;;19.84;100.00;101065.34;5166214;28;20022;-74
2023/08/31 07:37:54;;;;;;;19.58;4.07;;;;;;;19.85;100.00;101064.31;5171335;28;20045;-75
2023/08/31 07:40:25;;;;;;;13.63;3.70;;;;;;;20.06;100.00;101071.22;5171785;28;20025;-74
2023/08/31 07:42:55;;;;;;;12.02;3.70;;;;;;;19.92;100.00;101067.78;5166239;28;20037;-75
2023/08/31 07:45:26;;;;;;;8.18;3.05;;;;;;;20.09;100.00;101072.69;5167257;28;20117;-74
2023/08/31 07:47:56;;;;;;;9.77;3.50;;;;;;;20.07;100.00;101069.34;5166331;28;20092;-75
2023/08/31 07:50:27;;;;;;;8.98;3.17;;;;;;;20.22;100.00;101078.00;5162278;28;20033;-75
2023/08/31 07:52:57;;;;;;;12.35;3.78;;;;;;;20.09;100.00;101075.41;5161574;28;20022;-75
2023/08/31 07:55:28;;;;;;;8.93;3.42;;;;;;;20.19;100.00;101073.00;5173057;28;20050;-75
2023/08/31 07:57:59;;;;;;;10.82;3.22;;;;;;;20.44;100.00;101079.25;5173373;28;20022;-74
2023/08/31 08:00:29;;;;;;;16.00;3.53;;;;;;;20.82;100.00;101082.84;5173417;28;20026;-76
2023/08/31 08:03:00;;;;;;;11.40;3.47;;;;;;;20.71;100.00;101084.44;5163747;28;20410;-75
2023/08/31 08:05:30;;;;;;;11.00;3.17;;;;;;;20.40;100.00;101072.59;5164416;28;20136;-75
2023/08/31 08:08:00;;;;;;;14.55;3.80;;;;;;;20.36;100.00;101082.25;5166654;28;20017;-75
2023/08/31 08:10:31;;;;;;;11.30;3.45;;;;;;;20.64;100.00;101080.97;5159675;28;20033;-75
2023/08/31 08:13:01;;;;;;;17.05;3.83;;;;;;;20.82;100.00;101088.28;5164739;28;20109;-75
2023/08/31 08:15:32;;;;;;;13.43;3.40;;;;;;;20.82;100.00;101086.41;5166122;28;20022;-74
2023/08/31 08:18:03;;;;;;;9.70;3.45;;;;;;;20.69;100.00;101081.94;5167376;28;20025;-76
2023/08/31 08:20:33;;;;;;;11.27;3.13;;;;;;;20.68;100.00;101090.31;5170344;28;20029;-75
2023/08/31 08:23:05;;;;;;;11.48;3.72;;;;;;;20.63;100.00;101092.91;5170831;28;20030;-76
2023/08/31 08:25:36;;;;;;;8.93;3.40;;;;;;;20.80;100.00;101096.72;5163514;28;20037;-75
2023/08/31 08:28:06;;;;;;;8.18;3.35;;;;;;;20.70;100.00;101104.59;5171466;28;20023;-76
2023/08/31 08:30:37;;;;;;;9.93;3.58;;;;;;;21.24;100.00;101100.16;5175391;28;20060;-75
2023/08/31 08:33:08;;;;;;;11.88;3.28;;;;;;;21.03;100.00;101097.88;5170004;28;20075;-76
2023/08/31 08:35:39;;;;;;;8.00;3.28;;;;;;;21.15;100.00;101094.16;5168358;28;20431;-77
2023/08/31 08:38:11;;;;;;;13.57;3.80;;;;;;;20.94;100.00;101108.28;5163608;28;20105;-75
2023/08/31 08:40:41;;;;;;;9.18;3.28;;;;;;;21.05;100.00;101112.16;5175370;28;20578;-75
2023/08/31 08:43:13;;;;;;;6.68;2.75;;;;;;;21.01;100.00;101116.38;5171582;28;20030;-76
2023/08/31 08:45:46;;;;;;;10.75;3.17;;;;;;;21.47;100.00;101113.06;5172770;28;20017;-75
2023/08/31 08:48:18;;;;;;;10.95;3.85;;;;;;;21.65;100.00;101114.91;5160211;28;20022;-75
2023/08/31 08:50:49;;;;;;;9.57;3.13;;;;;;;21.58;100.00;101117.72;5166101;28;20025;-75
2023/08/31 08:53:20;;;;;;;10.27;3.50;;;;;;;21.58;100.00;101116.91;5169630;28;20064;-74
2023/08/31 08:55:50;;;;;;;7.97;3.13;;;;;;;21.53;100.00;101127.69;5162245;28;20061;-75
2023/08/31 08:58:21;;;;;;;11.02;3.63;;;;;;;21.63;100.00;101120.59;5160834;28;20026;-75
2023/08/31 09:00:55;;;;;;;11.70;3.50;;;;;;;21.73;100.00;101120.03;5170151;28;20026;-75
2023/08/31 09:03:25;;;;;;;14.18;4.10;;;;;;;21.83;100.00;101124.91;5168222;28;20029;-74
2023/08/31 09:05:58;;;;;;;12.68;3.45;;;;;;;22.16;100.00;101125.25;5172308;28;20103;-75
2023/08/31 09:08:29;;;;;;;12.32;3.45;;;;;;;22.49;100.00;101124.69;5177897;28;20022;-75
2023/08/31 09:10:59;;;;;;;13.73;3.85;;;;;;;21.83;100.00;101128.47;5170660;28;20026;-75
2023/08/31 09:13:30;;;;;;;13.23;3.45;;;;;;;22.04;100.00;101118.94;5165651;28;20080;-75
2023/08/31 09:16:01;;;;;;;14.90;3.78;;;;;;;22.42;100.00;101134.06;5169161;28;20024;-74
2023/08/31 09:18:32;;;;;;;9.45;3.60;;;;;;;22.26;100.00;101129.31;5170117;28;20033;-74
2023/08/31 09:21:03;;;;;;;10.27;3.30;;;;;;;22.39;100.00;101129.91;5165519;28;20382;-74
2023/08/31 09:23:34;;;;;;;10.30;3.65;;;;;;;22.24;100.00;101129.56;5166917;28;20034;-75
2023/08/31 09:26:04;;;;;;;15.00;4.03;;;;;;;22.45;100.00;101134.44;5168468;28;20033;-75
2023/08/31 09:28:40;;;;;;;14.63;3.95;;;;;;;22.35;100.00;101133.34;5164570;28;20056;-75
2023/08/31 09:31:11;;;;;;;;;;;;;;;22.57;100.00;101139.06;5164941;28;20073;-74
2023/08/31 09:33:51;;;;;;;11.18;3.53;;;;;;;22.21;100.00;101130.00;5165370;28;19914;-75
2023/08/31 09:36:23;;;;;;;9.38;3.30;;;;;;;22.25;100.00;101135.84;5167859;28;20054;-74
2023/08/31 09:38:58;;;;;;;12.07;3.80;;;;;;;22.05;100.00;101134.25;5171088;28;20027;-74
2023/08/31 09:41:28;;;;;;;12.13;3.83;;;;;;;21.91;100.00;101143.72;5167507;28;20041;-74
2023/08/31 09:44:16;;;;;;;11.45;3.92;;;;;;;22.29;100.00;101137.88;5164307;28;20426;-74
2023/08/31 09:46:48;;;;;;;16.10;3.90;;;;;;;22.57;100.00;101128.94;5175959;28;20030;-75
2023/08/31 09:49:21;;;;;;;9.98;3.42;;;;;;;22.57;100.00;101131.69;5165282;28;20076;-74
2023/08/31 09:51:52;;;;;;;9.75;3.08;;;;;;;22.65;100.00;101123.13;5168709;28;20122;-74
2023/08/31 09:54:26;;;;;;;12.63;3.53;;;;;;;22.42;100.00;101134.88;5165439;28;20031;-74
2023/08/31 09:56:59;;;;;;;9.18;3.35;;;;;;;22.59;100.00;101126.81;5172709;28;20030;-74
2023/08/31 09:59:31;;;;;;;8.85;3.30;;;;;;;22.85;100.00;101117.25;5168709;28;20491;-75
2023/08/31 10:02:02;;;;;;;13.32;3.25;;;;;;;23.24;100.00;101121.13;5163543;28;20553;-74
2023/08/31 10:04:35;;;;;;;14.55;3.95;;;;;;;22.33;100.00;101130.84;5168852;28;20022;-74
2023/08/31 10:07:07;;;;;;;10.38;3.28;;;;;;;22.17;100.00;101128.81;5183946;28;20022;-74
2023/08/31 10:09:38;;;;;;;12.00;3.83;;;;;;;22.18;100.00;101122.28;5206165;22;20382;-74
2023/08/31 10:12:09;;;;;;;12.77;4.00;;;;;;;21.92;100.00;101121.63;5199028;28;20029;-74
2023/08/31 10:14:40;;;;;;;9.88;3.70;;;;;;;21.91;100.00;101125.41;5198471;28;20026;-74
2023/08/31 10:17:10;;;;;;;8.18;3.20;;;;;;;22.05;100.00;101119.75;5185678;28;20537;-75
2023/08/31 10:19:41;;;;;;;9.23;3.15;;;;;;;21.55;100.00;101122.84;5194210;28;20029;-74
2023/08/31 10:22:11;;;;;;;9.05;3.35;;;;;;;21.73;100.00;101123.59;5187537;28;20022;-74
2023/08/31 10:25:05;;;;;;;8.25;3.55;;;;;;;21.79;100.00;101129.19;5186694;28;20398;-73
2023/08/31 10:27:37;;;;;;;12.95;3.45;;;;;;;21.72;100.00;101127.38;5187915;28;20032;-73
2023/08/31 10:30:21;;;;;;;9.23;2.75;;;;;;;21.45;100.00;101128.84;5185993;28;20376;-74
2023/08/31 10:33:21;;;;;;;7.90;3.30;;;;;;;21.53;100.00;101127.69;5186960;28;20500;-74
2023/08/31 10:35:55;;;;;;;8.00;3.15;;;;;;;21.97;100.00;101121.75;5190527;28;20076;-74
2023/08/31 10:38:30;;;;;;;5.93;2.40;;;;;;;22.26;100.00;101121.09;5186433;28;20038;-73
2023/08/31 10:41:09;;;;;;;10.38;3.35;;;;;;;21.96;100.00;101125.56;5193158;28;20401;-74
2023/08/31 10:43:45;;;;;;;8.35;2.63;;;;;;;21.77;100.00;101126.69;5189099;28;20030;-74
2023/08/31 10:46:16;;;;;;;6.95;2.28;;;;;;;21.76;100.00;101132.41;5193161;28;20025;-74
2023/08/31 10:48:55;;;;;;;4.68;2.30;;;;;;;21.72;100.00;101140.22;5189358;28;20034;-73
2023/08/31 10:51:30;;;;;;;6.85;2.53;;;;;;;21.45;100.00;101131.59;5186823;28;20152;-73
2023/08/31 10:54:10;;;;;;;10.50;2.35;;;;;;;21.39;100.00;101136.06;5192037;28;20025;-73
2023/08/31 10:57:00;;;;;;;6.13;2.42;;;;;;;21.39;100.00;101130.63;5193480;28;20410;-74
2023/08/31 10:59:43;;;;;;;3.47;1.83;;;;;;;21.36;100.00;101124.78;5194043;28;20040;-73
2023/08/31 11:02:29;;;;;;;8.55;2.28;;;;;;;21.13;100.00;101128.19;5189780;28;20041;-73
2023/08/31 11:05:07;;;;;;;3.88;1.90;;;;;;;21.09;100.00;101122.38;5189520;28;20075;-73
2023/08/31 11:07:40;;;;;;;8.05;2.25;;;;;;;21.02;100.00;101124.34;5184121;28;20058;-73
2023/08/31 11:10:14;;;;;;;5.32;1.92;;;;;;;20.82;100.00;101110.94;5186546;28;20571;-73
2023/08/31 11:12:47;;;;;;;5.90;2.15;;;;;;;21.10;100.00;101115.84;5181991;28;20029;-73
2023/08/31 11:15:19;;;;;;;5.75;2.13;;;;;;;21.48;100.00;101112.00;5185436;28;20088;-74
2023/08/31 11:17:51;;;;;;;4.18;1.70;;;;;;;21.83;100.00;101119.47;5191456;28;20106;-74
2023/08/31 11:20:23;;;;;;;6.63;2.00;;;;;;;21.90;100.00;101107.38;5193086;28;20466;-73
2023/08/31 11:22:54;;;;;;;7.28;1.98;;;;;;;21.92;100.00;101105.22;5184017;28;20024;-73
2023/08/31 11:25:25;;;;;;;5.43;2.05;;;;;;;22.00;100.00;101111.44;5181116;28;20038;-74
2023/08/31 11:27:59;;;;;;;7.03;2.67;;;;;;;22.02;100.00;101107.38;5185880;28;20044;-74
2023/08/31 11:30:31;;;;;;;7.85;2.33;;;;;;;22.23;100.00;101106.84;5196867;28;20039;-74
2023/08/31 11:33:05;;;;;;;7.50;2.40;;;;;;;21.94;100.00;101099.56;5188226;28;20112;-73
2023/08/31 11:35:37;;;;;;;6.95;2.97;;;;;;;21.82;100.00;101088.59;5181611;28;20021;-74